Time;durP1;ratioP1;P1;durP2;ratioP2;P2;SDS_P1;SDS_P2;PMS_P1;PMS_P2;Temp;Humidity;BMP_temperature;BMP_pressure;BME280_temperature;BME280_humidity;BME280_pressure;Samples;Min_cycle;Max_cycle;Signal;HPM_P1;HPM_P2
2023/07/29 00:01:32;;;;;;;0.10;0.10;;;20.50;80.20;;;;;;4985171;28;20045;-80
2023/07/29 00:03:58;;;;;;;0.00;0.00;;;20.60;80.20;;;;;;4986093;28;20058;-78
2023/07/29 00:06:24;;;;;;;0.00;0.00;;;20.60;80.40;;;;;;4985812;28;20126;-78
2023/07/29 00:08:50;;;;;;;0.20;0.13;;;20.60;80.10;;;;;;4984352;28;20069;-79
2023/07/29 00:11:15;;;;;;;0.00;0.00;;;20.60;80.00;;;;;;4985468;28;20037;-79
2023/07/29 00:13:41;;;;;;;0.00;0.00;;;20.60;80.20;;;;;;4985891;28;20034;-81
2023/07/29 00:16:06;;;;;;;0.37;0.27;;;20.50;80.20;;;;;;4985401;28;20407;-77
2023/07/29 00:18:32;;;;;;;0.00;0.00;;;20.40;80.70;;;;;;4979446;28;20766;-79
2023/07/29 00:20:58;;;;;;;0.00;0.00;;;20.50;80.90;;;;;;4983548;28;20050;-78
2023/07/29 00:23:24;;;;;;;0.13;0.13;;;20.50;80.70;;;;;;4985652;28;20034;-79
2023/07/29 00:25:49;;;;;;;0.10;0.10;;;20.50;80.90;;;;;;4984064;28;20026;-78
2023/07/29 00:28:15;;;;;;;0.10;0.10;;;20.60;80.00;;;;;;4984439;28;20453;-81
2023/07/29 00:30:41;;;;;;;0.20;0.20;;;20.50;81.00;;;;;;4983762;28;21644;-79
2023/07/29 00:33:07;;;;;;;0.00;0.00;;;20.50;80.70;;;;;;4983650;28;20038;-78
2023/07/29 00:35:33;;;;;;;0.10;0.10;;;20.40;80.80;;;;;;4984947;28;20049;-77
2023/07/29 00:37:59;;;;;;;0.33;0.33;;;20.40;81.00;;;;;;4985597;28;20035;-78
2023/07/29 00:40:27;;;;;;;0.10;0.10;;;20.50;80.70;;;;;;4984665;28;20030;-79
2023/07/29 00:42:53;;;;;;;0.28;0.28;;;20.60;80.20;;;;;;4984809;28;20038;-77
2023/07/29 00:45:19;;;;;;;0.00;0.00;;;20.60;80.20;;;;;;4984879;28;20034;-80
2023/07/29 00:47:45;;;;;;;0.20;0.20;;;20.60;80.50;;;;;;4985422;28;20042;-79
2023/07/29 00:50:13;;;;;;;0.10;0.10;;;20.50;81.20;;;;;;4987330;28;20182;-79
2023/07/29 00:52:38;;;;;;;0.00;0.00;;;20.40;81.60;;;;;;4983164;28;20062;-77
2023/07/29 00:55:06;;;;;;;0.00;0.00;;;20.30;82.30;;;;;;4984839;28;20042;-78
2023/07/29 00:57:32;;;;;;;0.22;0.17;;;20.20;82.80;;;;;;4984216;28;20456;-78
2023/07/29 00:59:59;;;;;;;0.45;0.45;;;20.20;82.80;;;;;;4987223;28;20694;-77
2023/07/29 01:02:26;;;;;;;0.03;0.03;;;20.20;83.00;;;;;;4982289;28;20038;-79
2023/07/29 01:04:55;;;;;;;0.10;0.10;;;20.20;82.90;;;;;;4983166;28;20034;-78
2023/07/29 01:07:45;;;;;;;0.10;0.10;;;20.20;83.00;;;;;;4983476;28;20037;-79
2023/07/29 01:10:36;;;;;;;0.00;0.00;;;20.10;82.90;;;;;;4998128;28;20830;-79
2023/07/29 01:13:13;;;;;;;0.05;0.05;;;20.10;83.20;;;;;;4973897;28;20038;-78
2023/07/29 01:15:50;;;;;;;0.30;0.30;;;20.10;83.20;;;;;;4984539;28;20089;-82
2023/07/29 01:18:26;;;;;;;0.10;0.10;;;20.20;82.80;;;;;;4979099;28;20402;-80
2023/07/29 01:20:54;;;;;;;0.10;0.10;;;20.10;82.80;;;;;;4983011;28;20035;-79
2023/07/29 01:23:25;;;;;;;0.10;0.10;;;20.20;82.70;;;;;;4984127;28;20053;-80
2023/07/29 01:25:50;;;;;;;0.00;0.00;;;20.20;82.80;;;;;;4984441;28;20701;-81
2023/07/29 01:28:16;;;;;;;0.00;0.00;;;20.10;83.60;;;;;;4984693;28;20038;-80
2023/07/29 01:30:44;;;;;;;0.03;0.03;;;20.00;84.30;;;;;;4984203;28;20030;-77
2023/07/29 01:33:26;;;;;;;0.10;0.10;;;19.80;85.10;;;;;;4973669;28;20365;-77
2023/07/29 01:36:01;;;;;;;0.50;0.50;;;19.70;86.10;;;;;;4977878;28;20053;-77
2023/07/29 01:38:34;;;;;;;0.20;0.20;;;19.60;87.10;;;;;;4983989;28;20030;-77
2023/07/29 01:41:06;;;;;;;0.00;0.00;;;19.60;87.50;;;;;;4981647;28;20027;-78
2023/07/29 01:43:32;;;;;;;0.00;0.00;;;19.50;88.30;;;;;;4983826;28;20030;-77
2023/07/29 01:45:58;;;;;;;;;;;19.50;88.60;;;;;;4982685;28;21195;-77
2023/07/29 01:48:24;;;;;;;0.10;0.10;;;19.50;88.50;;;;;;4982439;28;19914;-77
2023/07/29 01:50:50;;;;;;;0.00;0.00;;;19.50;88.70;;;;;;4982285;28;20042;-79
2023/07/29 01:53:16;;;;;;;1.00;0.40;;;19.40;89.40;;;;;;4984907;28;20032;-78
2023/07/29 01:55:44;;;;;;;0.00;0.00;;;19.30;89.60;;;;;;4984546;28;20038;-79
2023/07/29 01:58:10;;;;;;;0.32;0.32;;;19.50;89.10;;;;;;4983691;28;20481;-78
2023/07/29 02:00:35;;;;;;;0.00;0.00;;;19.50;88.70;;;;;;4996145;28;20030;-80
2023/07/29 02:03:01;;;;;;;0.10;0.10;;;19.50;88.90;;;;;;4983512;28;20070;-80
2023/07/29 02:05:27;;;;;;;0.20;0.20;;;19.40;89.70;;;;;;4983912;28;20026;-80
2023/07/29 02:07:52;;;;;;;0.00;0.00;;;19.30;90.10;;;;;;4984028;28;20026;-81
2023/07/29 02:10:18;;;;;;;0.10;0.10;;;19.20;90.30;;;;;;4986886;28;20545;-77
2023/07/29 02:12:44;;;;;;;0.00;0.00;;;19.30;90.10;;;;;;4982130;28;20034;-79
2023/07/29 02:15:09;;;;;;;0.00;0.00;;;19.20;90.30;;;;;;4983620;28;20041;-78
2023/07/29 02:17:36;;;;;;;0.30;0.30;;;19.20;90.40;;;;;;4985328;28;20057;-79
2023/07/29 02:20:03;;;;;;;;;;;19.10;90.70;;;;;;4983558;28;20057;-79
2023/07/29 02:22:29;;;;;;;0.55;0.28;;;19.10;91.10;;;;;;4983102;28;19925;-78
2023/07/29 02:24:55;;;;;;;0.00;0.00;;;19.10;90.90;;;;;;4983262;28;20034;-81
2023/07/29 02:27:20;;;;;;;0.10;0.10;;;19.10;91.00;;;;;;4983080;28;20014;-79
2023/07/29 02:29:46;;;;;;;0.10;0.10;;;19.10;90.90;;;;;;4983270;28;20026;-80
2023/07/29 02:32:12;;;;;;;0.10;0.10;;;19.00;91.10;;;;;;4983362;28;20022;-79
2023/07/29 02:34:38;;;;;;;0.00;0.00;;;19.10;91.10;;;;;;4982143;28;20049;-78
2023/07/29 02:37:04;;;;;;;0.07;0.07;;;19.00;91.10;;;;;;4981669;28;20034;-77
2023/07/29 02:39:30;;;;;;;0.25;0.17;;;18.80;91.80;;;;;;4982890;28;20030;-79
2023/07/29 02:41:58;;;;;;;1.10;0.40;;;18.90;91.90;;;;;;4982160;28;20038;-79
2023/07/29 02:44:24;;;;;;;0.00;0.00;;;18.90;92.00;;;;;;4982770;28;20073;-80
2023/07/29 02:46:49;;;;;;;0.00;0.00;;;18.90;91.90;;;;;;4981126;28;20121;-77
2023/07/29 02:49:15;;;;;;;0.07;0.07;;;19.00;92.00;;;;;;4981466;28;20030;-79
2023/07/29 02:51:41;;;;;;;0.57;0.20;;;19.00;91.80;;;;;;4978348;28;20037;-79
2023/07/29 02:54:06;;;;;;;0.00;0.00;;;18.90;91.70;;;;;;4980334;28;20131;-77
2023/07/29 02:56:32;;;;;;;4.23;0.63;;;19.00;91.80;;;;;;4981266;28;20034;-77
2023/07/29 02:58:58;;;;;;;0.20;0.20;;;19.00;91.50;;;;;;4980701;28;20338;-78
2023/07/29 03:01:25;;;;;;;0.10;0.10;;;19.10;91.50;;;;;;4979283;28;20038;-78
2023/07/29 03:03:51;;;;;;;;;;;19.10;91.40;;;;;;4970937;28;20037;-78
2023/07/29 03:06:16;;;;;;;0.82;0.50;;;19.10;91.20;;;;;;4983762;28;19918;-78
2023/07/29 03:08:42;;;;;;;0.23;0.23;;;19.10;91.40;;;;;;4984395;28;20073;-78
2023/07/29 03:11:13;;;;;;;0.10;0.10;;;19.00;91.70;;;;;;4974487;28;20110;-77
2023/07/29 03:13:39;;;;;;;1.95;1.00;;;19.10;91.50;;;;;;4982804;28;20038;-79
2023/07/29 03:16:11;;;;;;;0.10;0.10;;;19.10;91.60;;;;;;4981874;28;20042;-77
2023/07/29 03:18:38;;;;;;;0.10;0.10;;;19.00;91.80;;;;;;4982030;28;20026;-81
2023/07/29 03:21:04;;;;;;;0.20;0.20;;;18.80;92.40;;;;;;4983270;28;20133;-78
2023/07/29 03:23:30;;;;;;;0.28;0.28;;;18.80;92.30;;;;;;4982585;28;20042;-79
2023/07/29 03:25:58;;;;;;;;;;;18.90;92.40;;;;;;4988217;28;20054;-78
2023/07/29 03:28:29;;;;;;;0.10;0.10;;;19.00;92.20;;;;;;4982839;28;20020;-79
2023/07/29 03:30:55;;;;;;;0.28;0.28;;;18.90;92.10;;;;;;4976116;28;20031;-79
2023/07/29 03:33:21;;;;;;;0.10;0.10;;;18.90;91.70;;;;;;4986625;28;20085;-80
2023/07/29 03:35:47;;;;;;;0.17;0.17;;;19.00;91.70;;;;;;4986514;28;20050;-80
2023/07/29 03:38:13;;;;;;;0.00;0.00;;;19.00;92.20;;;;;;4986736;28;20057;-78
2023/07/29 03:40:39;;;;;;;0.05;0.05;;;19.10;91.80;;;;;;4985342;28;20059;-79
2023/07/29 03:43:05;;;;;;;0.20;0.20;;;19.20;91.50;;;;;;4985599;28;20120;-78
2023/07/29 03:45:31;;;;;;;0.67;0.63;;;19.30;91.00;;;;;;4984935;28;20466;-78
2023/07/29 03:47:57;;;;;;;0.10;0.10;;;19.40;90.80;;;;;;4986418;28;20105;-78
2023/07/29 03:50:24;;;;;;;0.37;0.37;;;19.40;90.60;;;;;;4986093;28;20129;-78
2023/07/29 03:52:49;;;;;;;0.00;0.00;;;19.30;90.90;;;;;;4981960;28;20027;-77
2023/07/29 03:55:15;;;;;;;0.00;0.00;;;19.10;91.90;;;;;;4986094;28;20452;-79
2023/07/29 03:57:41;;;;;;;0.10;0.10;;;19.00;92.30;;;;;;4985852;28;20037;-79
2023/07/29 04:00:08;;;;;;;0.17;0.17;;;18.80;92.60;;;;;;4987365;28;20050;-78
2023/07/29 04:02:37;;;;;;;0.65;0.65;;;18.80;92.80;;;;;;4986197;28;20088;-78
2023/07/29 04:05:03;;;;;;;0.10;0.10;;;18.80;92.80;;;;;;4986363;28;20561;-78
2023/07/29 04:07:30;;;;;;;0.30;0.30;;;18.90;92.70;;;;;;4983942;28;20034;-78
2023/07/29 04:09:56;;;;;;;0.08;0.08;;;18.80;92.70;;;;;;4985887;28;20064;-78
2023/07/29 04:12:22;;;;;;;0.30;0.30;;;18.80;93.00;;;;;;4985103;28;20081;-79
2023/07/29 04:14:48;;;;;;;0.10;0.10;;;18.80;93.00;;;;;;4983947;28;20053;-78
2023/07/29 04:17:14;;;;;;;0.00;0.00;;;18.90;92.80;;;;;;4984031;28;20489;-77
2023/07/29 04:19:40;;;;;;;0.00;0.00;;;19.00;92.50;;;;;;4979427;28;20130;-77
2023/07/29 04:22:05;;;;;;;0.10;0.10;;;19.10;92.50;;;;;;4985590;28;20084;-79
2023/07/29 04:24:31;;;;;;;0.30;0.27;;;19.10;92.90;;;;;;4985721;28;20109;-81
2023/07/29 04:26:57;;;;;;;0.57;0.57;;;19.20;93.00;;;;;;4985037;28;20109;-78
2023/07/29 04:29:23;;;;;;;0.00;0.00;;;19.20;93.20;;;;;;4985795;28;20049;-78
2023/07/29 04:31:49;;;;;;;0.30;0.30;;;18.80;95.70;;;;;;4985294;28;20815;-77
2023/07/29 04:34:15;;;;;;;0.10;0.10;;;18.60;97.20;;;;;;4985404;28;20031;-78
2023/07/29 04:36:41;;;;;;;1.07;1.07;;;18.70;97.80;;;;;;4985154;28;20041;-76
2023/07/29 04:39:07;;;;;;;0.23;0.23;;;18.60;98.30;;;;;;4985434;28;20030;-77
2023/07/29 04:41:33;;;;;;;0.00;0.00;;;18.60;98.50;;;;;;4984996;28;20079;-77
2023/07/29 04:43:59;;;;;;;3.30;1.10;;;18.60;98.70;;;;;;4983789;28;20035;-77
2023/07/29 04:46:24;;;;;;;0.37;0.30;;;18.30;99.90;;;;;;4983064;28;20039;-77
2023/07/29 04:48:50;;;;;;;0.10;0.10;;;18.50;99.90;;;;;;4983544;28;20845;-79
2023/07/29 04:51:16;;;;;;;0.20;0.20;;;18.00;99.90;;;;;;4983738;28;20541;-77
2023/07/29 04:53:41;;;;;;;0.23;0.23;;;17.80;99.90;;;;;;4985185;28;20050;-80
2023/07/29 04:56:07;;;;;;;0.00;0.00;;;17.70;99.90;;;;;;4976420;28;20097;-77
2023/07/29 04:58:35;;;;;;;0.10;0.10;;;17.80;99.90;;;;;;4978398;28;20047;-80
2023/07/29 05:01:02;;;;;;;0.68;0.68;;;17.60;99.90;;;;;;4983429;28;20387;-77
2023/07/29 05:03:27;;;;;;;0.43;0.43;;;17.60;99.90;;;;;;4985686;28;20026;-78
2023/07/29 05:05:55;;;;;;;0.07;0.07;;;17.70;99.90;;;;;;4983365;28;20821;-77
2023/07/29 05:08:21;;;;;;;0.22;0.22;;;17.80;99.90;;;;;;4985537;28;20026;-77
2023/07/29 05:10:51;;;;;;;0.00;0.00;;;17.80;99.90;;;;;;4985090;28;20110;-78
2023/07/29 05:13:17;;;;;;;0.15;0.15;;;17.60;99.90;;;;;;4983203;28;20030;-78
2023/07/29 05:15:43;;;;;;;0.22;0.22;;;17.70;99.90;;;;;;4984662;28;20027;-78
2023/07/29 05:18:09;;;;;;;2.50;1.50;;;17.60;99.90;;;;;;4983242;28;20041;-79
2023/07/29 05:20:34;;;;;;;0.47;0.47;;;17.60;99.90;;;;;;4989689;28;20034;-78
2023/07/29 05:23:00;;;;;;;0.40;0.40;;;17.70;99.90;;;;;;4984486;28;20035;-78
2023/07/29 05:25:27;;;;;;;0.03;0.03;;;17.60;99.90;;;;;;4984360;28;20057;-79
2023/07/29 05:27:52;;;;;;;0.85;0.85;;;17.70;99.90;;;;;;4984018;28;20030;-80
2023/07/29 05:30:18;;;;;;;0.00;0.00;;;17.70;99.90;;;;;;4983990;28;20026;-78
2023/07/29 05:32:44;;;;;;;0.38;0.38;;;17.70;99.90;;;;;;4982527;28;20034;-78
2023/07/29 05:35:10;;;;;;;0.00;0.00;;;17.90;99.90;;;;;;4982412;28;20042;-78
2023/07/29 05:37:42;;;;;;;0.00;0.00;;;18.10;99.90;;;;;;4984383;28;20030;-78
2023/07/29 05:40:08;;;;;;;0.88;0.28;;;18.40;99.90;;;;;;4982639;28;20026;-79
2023/07/29 05:42:34;;;;;;;0.22;0.22;;;18.20;99.90;;;;;;4983827;28;20543;-78
2023/07/29 05:45:00;;;;;;;0.15;0.15;;;18.20;99.90;;;;;;4983923;28;20169;-79
2023/07/29 05:47:26;;;;;;;0.10;0.10;;;18.10;99.90;;;;;;4984314;28;20616;-79
2023/07/29 05:49:52;;;;;;;0.17;0.17;;;18.30;99.90;;;;;;4984104;28;20489;-78
2023/07/29 05:52:18;;;;;;;0.20;0.20;;;18.30;99.90;;;;;;4980753;28;20365;-80
2023/07/29 05:54:44;;;;;;;0.10;0.10;;;18.30;99.90;;;;;;4979010;28;20749;-79
2023/07/29 05:57:12;;;;;;;2.80;0.40;;;18.30;99.90;;;;;;4983727;28;20022;-78
2023/07/29 05:59:38;;;;;;;0.20;0.20;;;18.20;99.90;;;;;;4982157;28;20844;-79
2023/07/29 06:02:04;;;;;;;0.30;0.30;;;18.30;99.90;;;;;;4983664;28;20033;-77
2023/07/29 06:04:30;;;;;;;2.95;0.77;;;18.40;99.90;;;;;;4983593;28;20042;-75
2023/07/29 06:06:55;;;;;;;0.30;0.30;;;18.50;99.90;;;;;;4986220;28;20036;-77
2023/07/29 06:09:22;;;;;;;0.10;0.10;;;18.60;99.90;;;;;;4987234;28;20038;-77
2023/07/29 06:11:48;;;;;;;4.18;1.58;;;18.60;99.90;;;;;;4983287;28;20064;-77
2023/07/29 06:14:13;;;;;;;0.20;0.20;;;18.60;99.90;;;;;;4987403;28;20588;-76
2023/07/29 06:16:39;;;;;;;0.13;0.13;;;18.80;99.90;;;;;;4983009;28;20105;-76
2023/07/29 06:19:05;;;;;;;0.00;0.00;;;18.90;99.90;;;;;;4984099;28;20041;-79
2023/07/29 06:21:30;;;;;;;26.50;0.93;;;19.20;99.90;;;;;;4981517;28;20058;-77
2023/07/29 06:23:56;;;;;;;0.03;0.03;;;19.20;99.90;;;;;;4979872;28;20034;-77
2023/07/29 06:26:22;;;;;;;0.00;0.00;;;19.10;99.90;;;;;;4983642;28;20034;-77
2023/07/29 06:28:48;;;;;;;0.17;0.17;;;19.40;99.90;;;;;;4982368;28;20030;-79
2023/07/29 06:31:14;;;;;;;0.13;0.13;;;19.70;99.90;;;;;;4983749;28;20026;-76
2023/07/29 06:33:39;;;;;;;0.30;0.30;;;20.90;99.90;;;;;;4984570;28;20086;-77
2023/07/29 06:36:05;;;;;;;0.13;0.13;;;23.10;93.00;;;;;;4983041;28;20834;-80
2023/07/29 06:38:31;;;;;;;0.00;0.00;;;23.20;88.80;;;;;;4980929;28;20943;-78
2023/07/29 06:40:56;;;;;;;1.10;0.28;;;21.90;91.90;;;;;;4980261;28;20034;-77
2023/07/29 06:43:22;;;;;;;0.30;0.30;;;20.60;96.80;;;;;;4980096;28;20034;-76
2023/07/29 06:45:48;;;;;;;0.20;0.20;;;19.80;99.20;;;;;;4982575;28;20030;-78
2023/07/29 06:48:14;;;;;;;0.10;0.10;;;19.60;99.90;;;;;;4982689;28;20265;-77
2023/07/29 06:50:40;;;;;;;0.10;0.10;;;19.80;99.90;;;;;;4982604;28;20061;-75
2023/07/29 06:53:06;;;;;;;0.00;0.00;;;20.00;99.90;;;;;;4981942;28;20030;-77
2023/07/29 06:55:32;;;;;;;0.13;0.13;;;20.30;99.90;;;;;;4981717;28;20093;-76
2023/07/29 06:57:57;;;;;;;0.10;0.10;;;20.60;99.60;;;;;;4979938;28;20030;-78
2023/07/29 07:00:23;;;;;;;3.93;0.40;;;21.20;97.80;;;;;;4981557;28;20098;-77
2023/07/29 07:02:49;;;;;;;0.32;0.32;;;22.20;94.60;;;;;;4982066;28;20026;-78
2023/07/29 07:05:15;;;;;;;0.10;0.10;;;21.10;96.70;;;;;;4980723;28;20542;-78
2023/07/29 07:07:40;;;;;;;0.10;0.10;;;20.90;97.00;;;;;;4985105;28;20030;-78
2023/07/29 07:10:06;;;;;;;0.30;0.30;;;20.80;97.60;;;;;;4985320;28;20030;-78
2023/07/29 07:12:32;;;;;;;0.08;0.08;;;21.20;97.50;;;;;;4985853;28;20030;-77
2023/07/29 07:14:58;;;;;;;0.10;0.10;;;22.80;92.50;;;;;;4984814;28;20784;-77
2023/07/29 07:17:24;;;;;;;0.53;0.20;;;24.80;82.90;;;;;;4986661;28;20778;-81
2023/07/29 07:19:50;;;;;;;0.00;0.00;;;24.30;82.90;;;;;;4985021;28;20041;-79
2023/07/29 07:22:16;;;;;;;0.00;0.00;;;26.70;76.70;;;;;;4986056;28;20050;-82
2023/07/29 07:24:41;;;;;;;;;;;28.20;72.30;;;;;;4982394;28;20672;-82
2023/07/29 07:27:07;;;;;;;0.35;0.35;;;28.30;69.60;;;;;;4986091;28;19913;-80
2023/07/29 07:29:33;;;;;;;0.00;0.00;;;29.50;66.60;;;;;;4987270;28;20398;-88
2023/07/29 07:31:58;;;;;;;0.05;0.05;;;30.70;64.40;;;;;;4982981;28;20042;-79
2023/07/29 07:34:24;;;;;;;0.00;0.00;;;27.80;63.30;;;;;;4983607;28;20678;-79
2023/07/29 07:36:50;;;;;;;0.32;0.32;;;25.90;74.10;;;;;;4984400;28;20100;-83
2023/07/29 07:39:16;;;;;;;0.50;0.50;;;26.70;73.70;;;;;;4984566;28;20100;-82
2023/07/29 07:41:42;;;;;;;0.30;0.30;;;29.40;66.60;;;;;;4985196;28;20473;-83
2023/07/29 07:44:08;;;;;;;0.10;0.10;;;26.50;71.30;;;;;;4982854;28;20405;-79
2023/07/29 07:46:34;;;;;;;0.00;0.00;;;24.60;77.80;;;;;;4992103;28;20045;-79
2023/07/29 07:49:00;;;;;;;0.00;0.00;;;24.30;78.80;;;;;;4982783;28;20038;-79
2023/07/29 07:51:25;;;;;;;0.10;0.10;;;24.30;80.20;;;;;;4979146;28;20047;-82
2023/07/29 07:53:51;;;;;;;0.00;0.00;;;28.40;70.50;;;;;;4986043;28;20084;-82
2023/07/29 07:56:17;;;;;;;0.10;0.10;;;28.70;64.90;;;;;;4973623;28;20046;-81
2023/07/29 07:58:43;;;;;;;0.00;0.00;;;29.30;63.40;;;;;;4977891;28;20038;-81
2023/07/29 08:01:09;;;;;;;0.10;0.10;;;28.90;68.30;;;;;;4976986;28;20034;-81
2023/07/29 08:03:36;;;;;;;0.00;0.00;;;27.90;68.90;;;;;;4985234;28;20481;-80
2023/07/29 08:06:01;;;;;;;0.05;0.05;;;27.90;67.60;;;;;;4984443;28;20081;-81
2023/07/29 08:08:28;;;;;;;0.00;0.00;;;26.70;70.20;;;;;;4985990;28;20573;-76
2023/07/29 08:10:55;;;;;;;0.10;0.10;;;28.10;66.00;;;;;;4988555;28;20038;-79
2023/07/29 08:13:21;;;;;;;0.00;0.00;;;27.90;65.90;;;;;;4986512;28;20049;-82
2023/07/29 08:15:48;;;;;;;1.65;0.40;;;32.30;56.90;;;;;;4987158;28;20054;-80
2023/07/29 08:18:14;;;;;;;0.10;0.10;;;29.70;60.50;;;;;;4983154;28;20404;-77
2023/07/29 08:20:40;;;;;;;0.00;0.00;;;28.80;65.70;;;;;;4982002;28;20555;-77
2023/07/29 08:23:05;;;;;;;0.13;0.13;;;30.20;60.10;;;;;;4981463;28;20023;-81
2023/07/29 08:25:31;;;;;;;0.00;0.00;;;30.00;63.70;;;;;;4984013;28;20031;-79
2023/07/29 08:27:57;;;;;;;0.00;0.00;;;28.60;66.80;;;;;;4984445;28;20686;-76
2023/07/29 08:30:22;;;;;;;0.00;0.00;;;29.10;67.30;;;;;;4984065;28;20543;-77
2023/07/29 08:32:48;;;;;;;0.00;0.00;;;27.70;66.90;;;;;;4973938;28;20772;-76
2023/07/29 08:35:14;;;;;;;0.10;0.10;;;27.20;69.90;;;;;;4982641;28;20391;-78
2023/07/29 08:37:39;;;;;;;0.28;0.28;;;30.80;64.30;;;;;;4983560;28;20046;-77
2023/07/29 08:40:07;;;;;;;0.52;0.52;;;29.80;62.10;;;;;;4987363;28;20030;-81
2023/07/29 08:42:34;;;;;;;0.05;0.05;;;31.60;58.90;;;;;;4982254;28;20030;-78
2023/07/29 08:45:11;;;;;;;0.00;0.00;;;33.30;57.00;;;;;;4985550;28;20456;-80
2023/07/29 08:47:37;;;;;;;0.73;0.20;;;35.50;52.50;;;;;;4984565;28;20034;-79
2023/07/29 08:50:03;;;;;;;0.00;0.00;;;36.80;51.90;;;;;;4984907;28;20520;-83
2023/07/29 08:52:32;;;;;;;0.30;0.30;;;36.40;53.20;;;;;;4983919;28;20076;-82
2023/07/29 08:54:58;;;;;;;0.60;0.52;;;35.40;55.50;;;;;;4982421;28;20034;-79
2023/07/29 08:57:26;;;;;;;0.00;0.00;;;36.60;51.90;;;;;;4983103;28;20065;-79
2023/07/29 08:59:51;;;;;;;0.00;0.00;;;33.10;55.10;;;;;;4985904;28;20030;-80
2023/07/29 09:02:18;;;;;;;0.00;0.00;;;30.50;61.70;;;;;;4984436;28;20059;-79
2023/07/29 09:04:44;;;;;;;0.08;0.08;;;29.00;64.30;;;;;;4982840;28;20041;-79
2023/07/29 09:07:10;;;;;;;0.15;0.15;;;28.30;66.60;;;;;;4984453;28;20039;-78
2023/07/29 09:09:36;;;;;;;0.00;0.00;;;28.00;67.20;;;;;;4983170;28;20030;-81
2023/07/29 09:12:01;;;;;;;0.00;0.00;;;28.40;65.70;;;;;;4984434;28;20107;-79
2023/07/29 09:14:28;;;;;;;0.00;0.00;;;28.10;66.40;;;;;;4985815;28;20034;-79
2023/07/29 09:16:56;;;;;;;0.20;0.20;;;30.60;64.80;;;;;;4984062;28;20030;-78
2023/07/29 09:19:26;;;;;;;0.68;0.30;;;30.80;59.20;;;;;;4979197;28;20033;-78
2023/07/29 09:21:52;;;;;;;0.00;0.00;;;32.20;55.60;;;;;;4984034;28;20058;-78
2023/07/29 09:24:20;;;;;;;0.10;0.10;;;30.40;57.20;;;;;;4984085;28;20037;-79
2023/07/29 09:26:54;;;;;;;0.00;0.00;;;29.50;60.50;;;;;;4984219;28;20046;-80
2023/07/29 09:29:23;;;;;;;0.05;0.05;;;31.10;59.60;;;;;;4982177;28;20375;-79
2023/07/29 09:31:49;;;;;;;0.20;0.20;;;31.00;55.70;;;;;;4982745;28;20026;-78
2023/07/29 09:34:17;;;;;;;;;;;30.30;58.70;;;;;;4984250;28;20026;-80
2023/07/29 09:36:43;;;;;;;0.00;0.00;;;34.60;53.20;;;;;;4983632;28;20608;-79
2023/07/29 09:39:12;;;;;;;;;;;34.70;52.10;;;;;;4985631;28;20018;-78
2023/07/29 09:41:38;;;;;;;0.00;0.00;;;34.60;52.40;;;;;;4982305;28;19909;-79
2023/07/29 09:44:04;;;;;;;;;;;33.20;52.40;;;;;;4984301;28;20026;-79
2023/07/29 09:46:37;;;;;;;0.00;0.00;;;31.50;55.00;;;;;;4982808;28;19913;-82
2023/07/29 09:49:05;;;;;;;0.10;0.10;;;33.60;56.20;;;;;;4984097;28;20080;-80
2023/07/29 09:51:31;;;;;;;0.00;0.00;;;35.20;51.80;;;;;;4980163;28;20510;-79
2023/07/29 09:53:58;;;;;;;0.00;0.00;;;36.20;51.00;;;;;;4982846;28;20077;-80
2023/07/29 09:56:27;;;;;;;0.05;0.05;;;36.50;52.40;;;;;;4980617;28;20153;-79
2023/07/29 09:58:55;;;;;;;0.00;0.00;;;37.00;48.70;;;;;;4988245;28;20061;-79
2023/07/29 10:01:21;;;;;;;1.00;0.35;;;36.50;47.10;;;;;;4973246;28;20041;-79
2023/07/29 10:03:48;;;;;;;0.00;0.00;;;37.30;47.60;;;;;;4984024;28;20034;-79
2023/07/29 10:06:15;;;;;;;0.00;0.00;;;38.20;47.20;;;;;;4981698;28;20022;-80
2023/07/29 10:08:43;;;;;;;0.00;0.00;;;37.60;47.00;;;;;;4980472;28;20030;-80
2023/07/29 10:11:10;;;;;;;0.00;0.00;;;36.90;46.30;;;;;;4983772;28;20030;-78
2023/07/29 10:13:36;;;;;;;0.00;0.00;;;34.30;51.80;;;;;;4981040;28;20487;-79
2023/07/29 10:16:03;;;;;;;0.10;0.10;;;34.00;52.50;;;;;;4974062;28;20645;-79
2023/07/29 10:18:30;;;;;;;0.08;0.00;;;34.80;50.80;;;;;;4983218;28;20344;-79
2023/07/29 10:20:58;;;;;;;0.00;0.00;;;36.70;49.20;;;;;;4983334;28;20632;-80
2023/07/29 10:23:26;;;;;;;0.10;0.10;;;36.40;45.80;;;;;;4983402;28;20369;-79
2023/07/29 10:26:03;;;;;;;0.00;0.00;;;34.80;49.50;;;;;;4978226;28;20023;-80
2023/07/29 10:28:32;;;;;;;0.10;0.10;;;34.80;51.90;;;;;;4981709;28;20054;-77
2023/07/29 10:30:58;;;;;;;1.35;0.47;;;35.10;51.10;;;;;;4983444;28;20114;-79
2023/07/29 10:33:25;;;;;;;0.10;0.10;;;35.40;51.10;;;;;;4979240;28;20811;-80
2023/07/29 10:35:52;;;;;;;0.20;0.20;;;35.20;49.20;;;;;;4982640;28;20072;-82
2023/07/29 10:38:21;;;;;;;0.00;0.00;;;33.90;49.80;;;;;;4981337;28;20041;-79
2023/07/29 10:40:58;;;;;;;0.00;0.00;;;32.50;49.60;;;;;;4982143;28;20034;-78
2023/07/29 10:43:35;;;;;;;0.00;0.00;;;33.70;51.60;;;;;;4976714;28;20030;-78
2023/07/29 10:46:21;;;;;;;0.05;0.05;;;34.20;50.80;;;;;;4978368;28;20731;-78
2023/07/29 10:48:50;;;;;;;0.00;0.00;;;33.50;51.70;;;;;;4980533;28;20394;-78
2023/07/29 10:51:29;;;;;;;0.15;0.15;;;31.80;54.20;;;;;;4981835;28;20038;-80
2023/07/29 10:54:02;;;;;;;0.00;0.00;;;31.10;57.60;;;;;;4982859;28;20026;-77
2023/07/29 10:56:36;;;;;;;0.03;0.03;;;31.60;56.60;;;;;;4982041;28;20092;-78
2023/07/29 10:59:11;;;;;;;0.10;0.10;;;31.60;55.40;;;;;;4979965;28;20062;-78
2023/07/29 11:01:39;;;;;;;0.15;0.15;;;30.70;56.40;;;;;;4979253;28;20061;-80
2023/07/29 11:04:20;;;;;;;0.00;0.00;;;30.40;59.50;;;;;;4981121;28;20035;-78
2023/07/29 11:07:07;;;;;;;0.03;0.03;;;31.10;58.70;;;;;;4982116;28;20041;-79
2023/07/29 11:09:51;;;;;;;0.00;0.00;;;31.60;57.60;;;;;;4977353;28;20030;-79
2023/07/29 11:12:42;;;;;;;0.00;0.00;;;30.90;53.90;;;;;;4974473;28;20097;-77
2023/07/29 11:15:14;;;;;;;0.00;0.00;;;31.20;56.20;;;;;;4976003;28;20609;-77
2023/07/29 11:17:42;;;;;;;0.13;0.13;;;31.10;56.10;;;;;;4976067;28;20070;-78
2023/07/29 11:20:08;;;;;;;0.00;0.00;;;30.50;56.20;;;;;;4979095;28;20260;-78
2023/07/29 11:22:35;;;;;;;0.00;0.00;;;30.20;58.50;;;;;;4973080;28;20062;-80
2023/07/29 11:25:01;;;;;;;0.00;0.00;;;31.00;58.00;;;;;;4974397;28;20041;-77
2023/07/29 11:27:26;;;;;;;0.00;0.00;;;30.70;56.90;;;;;;4979301;28;20394;-79
2023/07/29 11:30:05;;;;;;;0.00;0.00;;;30.50;56.20;;;;;;4979981;28;20062;-77
2023/07/29 11:32:31;;;;;;;0.00;0.00;;;30.80;57.80;;;;;;4977467;28;20575;-79
2023/07/29 11:34:57;;;;;;;0.00;0.00;;;30.90;56.80;;;;;;4980823;28;20046;-78
2023/07/29 11:37:22;;;;;;;0.00;0.00;;;30.20;57.40;;;;;;4976267;28;20097;-78
2023/07/29 11:39:48;;;;;;;0.20;0.20;;;30.50;54.80;;;;;;4976405;28;20859;-82
2023/07/29 11:42:14;;;;;;;;;;;30.80;54.80;;;;;;4976415;28;20058;-80
2023/07/29 11:44:40;;;;;;;0.05;0.05;;;30.90;54.90;;;;;;4971863;28;19918;-80
2023/07/29 11:47:07;;;;;;;;;;;31.00;55.80;;;;;;4975342;28;20038;-79
2023/07/29 11:49:34;;;;;;;0.00;0.00;;;31.10;56.10;;;;;;4978825;28;19953;-79
2023/07/29 11:52:00;;;;;;;0.00;0.00;;;31.60;57.20;;;;;;4980211;28;20034;-80
2023/07/29 11:54:26;;;;;;;0.00;0.00;;;31.30;52.80;;;;;;4981984;28;20630;-80
2023/07/29 11:56:52;;;;;;;0.00;0.00;;;31.00;54.40;;;;;;4984631;28;20705;-79
2023/07/29 11:59:19;;;;;;;0.00;0.00;;;30.90;52.90;;;;;;4989127;28;20035;-80
2023/07/29 12:01:45;;;;;;;0.00;0.00;;;30.90;53.30;;;;;;4980387;28;20031;-79
2023/07/29 12:04:11;;;;;;;;;;;31.00;53.00;;;;;;4985161;28;20364;-81
2023/07/29 12:06:38;;;;;;;0.00;0.00;;;30.50;54.70;;;;;;4987391;28;19968;-79
2023/07/29 12:09:03;;;;;;;0.03;0.03;;;30.60;55.10;;;;;;4983566;28;20037;-78
2023/07/29 12:11:30;;;;;;;0.08;0.08;;;30.70;53.30;;;;;;4984150;28;20030;-79
2023/07/29 12:13:55;;;;;;;0.00;0.00;;;30.80;53.50;;;;;;4985282;28;20034;-81
2023/07/29 12:16:21;;;;;;;0.10;0.10;;;31.20;54.90;;;;;;4983380;28;20053;-81
2023/07/29 12:18:49;;;;;;;0.00;0.00;;;31.00;52.80;;;;;;4982161;28;20109;-80
2023/07/29 12:21:15;;;;;;;0.15;0.15;;;30.60;54.60;;;;;;4984718;28;20081;-79
2023/07/29 12:23:41;;;;;;;0.10;0.10;;;30.40;56.10;;;;;;4984734;28;20030;-79
2023/07/29 12:26:07;;;;;;;0.00;0.00;;;30.10;55.10;;;;;;4983847;28;20457;-80
2023/07/29 12:28:32;;;;;;;0.00;0.00;;;29.80;55.40;;;;;;4981425;28;20041;-78
2023/07/29 12:30:58;;;;;;;0.00;0.00;;;30.10;56.50;;;;;;4981052;28;20035;-79
2023/07/29 12:33:37;;;;;;;0.25;0.25;;;30.40;56.60;;;;;;4981943;28;20030;-80
2023/07/29 12:36:03;;;;;;;0.00;0.00;;;30.80;55.40;;;;;;4977951;28;20042;-80
2023/07/29 12:38:29;;;;;;;0.10;0.10;;;30.20;55.00;;;;;;4984853;28;20029;-80
2023/07/29 12:40:56;;;;;;;0.00;0.00;;;30.20;56.30;;;;;;4984320;28;20834;-81
2023/07/29 12:43:22;;;;;;;0.22;0.13;;;30.10;55.40;;;;;;4984000;28;20481;-79
2023/07/29 12:45:51;;;;;;;0.00;0.00;;;30.50;55.20;;;;;;4984566;28;20105;-82
2023/07/29 12:48:16;;;;;;;0.22;0.22;;;30.80;55.10;;;;;;4984561;28;20042;-80
2023/07/29 12:50:42;;;;;;;0.00;0.00;;;30.70;53.50;;;;;;4981944;28;20579;-78